sensor_id;sensor_type;location;lat;lon;timestamp;temperature;humidity
12413;DHT22;13877;18.896;-99.222;2022-12-16T00:01:19;21.60;39.30
12413;DHT22;13877;18.896;-99.222;2022-12-16T00:03:50;21.50;39.70
12413;DHT22;13877;18.896;-99.222;2022-12-16T00:06:18;21.30;39.80
12413;DHT22;13877;18.896;-99.222;2022-12-16T00:08:45;21.20;40.30
12413;DHT22;13877;18.896;-99.222;2022-12-16T00:11:12;21.10;40.50
12413;DHT22;13877;18.896;-99.222;2022-12-16T00:13:39;21.00;40.80
12413;DHT22;13877;18.896;-99.222;2022-12-16T00:16:09;21.00;41.20
12413;DHT22;13877;18.896;-99.222;2022-12-16T00:18:37;20.80;41.80
12413;DHT22;13877;18.896;-99.222;2022-12-16T00:21:04;20.70;42.00
12413;DHT22;13877;18.896;-99.222;2022-12-16T00:23:32;20.60;42.40
12413;DHT22;13877;18.896;-99.222;2022-12-16T00:25:59;20.50;42.70
12413;DHT22;13877;18.896;-99.222;2022-12-16T00:28:27;20.50;42.70
12413;DHT22;13877;18.896;-99.222;2022-12-16T00:30:55;20.50;43.20
12413;DHT22;13877;18.896;-99.222;2022-12-16T00:33:24;20.40;43.10
12413;DHT22;13877;18.896;-99.222;2022-12-16T00:35:52;20.30;43.90
12413;DHT22;13877;18.896;-99.222;2022-12-16T00:38:20;20.20;44.80
12413;DHT22;13877;18.896;-99.222;2022-12-16T00:40:47;20.20;44.40
12413;DHT22;13877;18.896;-99.222;2022-12-16T00:43:14;20.20;44.60
12413;DHT22;13877;18.896;-99.222;2022-12-16T00:45:41;20.20;43.90
12413;DHT22;13877;18.896;-99.222;2022-12-16T00:48:08;20.30;44.10
12413;DHT22;13877;18.896;-99.222;2022-12-16T00:50:35;20.40;43.70
12413;DHT22;13877;18.896;-99.222;2022-12-16T00:53:03;20.50;44.20
12413;DHT22;13877;18.896;-99.222;2022-12-16T00:55:31;20.50;43.70
12413;DHT22;13877;18.896;-99.222;2022-12-16T00:57:58;20.50;43.80
12413;DHT22;13877;18.896;-99.222;2022-12-16T01:00:25;20.50;43.90
12413;DHT22;13877;18.896;-99.222;2022-12-16T01:02:52;20.50;43.50
12413;DHT22;13877;18.896;-99.222;2022-12-16T01:05:21;20.40;43.90
12413;DHT22;13877;18.896;-99.222;2022-12-16T01:07:53;20.30;43.50
12413;DHT22;13877;18.896;-99.222;2022-12-16T01:10:20;20.20;43.60
12413;DHT22;13877;18.896;-99.222;2022-12-16T01:12:48;20.30;43.60
12413;DHT22;13877;18.896;-99.222;2022-12-16T01:15:16;20.20;43.60
12413;DHT22;13877;18.896;-99.222;2022-12-16T01:17:43;20.20;43.50
12413;DHT22;13877;18.896;-99.222;2022-12-16T01:20:10;20.10;43.60
12413;DHT22;13877;18.896;-99.222;2022-12-16T01:22:39;20.10;43.60
12413;DHT22;13877;18.896;-99.222;2022-12-16T01:25:06;20.10;43.20
12413;DHT22;13877;18.896;-99.222;2022-12-16T01:27:33;20.10;43.20
12413;DHT22;13877;18.896;-99.222;2022-12-16T01:30:00;20.00;42.90
12413;DHT22;13877;18.896;-99.222;2022-12-16T01:32:27;19.90;42.90
12413;DHT22;13877;18.896;-99.222;2022-12-16T01:34:54;19.90;43.00
12413;DHT22;13877;18.896;-99.222;2022-12-16T01:37:22;19.90;43.30
12413;DHT22;13877;18.896;-99.222;2022-12-16T01:39:49;19.80;42.80
12413;DHT22;13877;18.896;-99.222;2022-12-16T01:42:21;19.80;43.00
12413;DHT22;13877;18.896;-99.222;2022-12-16T01:44:50;19.80;42.80
12413;DHT22;13877;18.896;-99.222;2022-12-16T01:47:24;19.80;42.80
12413;DHT22;13877;18.896;-99.222;2022-12-16T01:50:00;19.80;42.80
12413;DHT22;13877;18.896;-99.222;2022-12-16T01:52:32;19.80;42.70
12413;DHT22;13877;18.896;-99.222;2022-12-16T01:57:37;19.70;42.80
12413;DHT22;13877;18.896;-99.222;2022-12-16T02:00:07;19.70;42.80
12413;DHT22;13877;18.896;-99.222;2022-12-16T02:02:41;19.70;42.80
12413;DHT22;13877;18.896;-99.222;2022-12-16T02:05:10;19.60;42.80
12413;DHT22;13877;18.896;-99.222;2022-12-16T02:08:10;19.60;42.90
12413;DHT22;13877;18.896;-99.222;2022-12-16T02:10:57;19.60;42.80
12413;DHT22;13877;18.896;-99.222;2022-12-16T02:34:07;19.50;42.50
12413;DHT22;13877;18.896;-99.222;2022-12-16T02:39:36;19.40;42.60
12413;DHT22;13877;18.896;-99.222;2022-12-16T02:42:28;19.40;42.30
12413;DHT22;13877;18.896;-99.222;2022-12-16T02:47:47;19.40;42.30
12413;DHT22;13877;18.896;-99.222;2022-12-16T02:52:53;19.40;42.30
12413;DHT22;13877;18.896;-99.222;2022-12-16T02:55:27;19.30;42.30
12413;DHT22;13877;18.896;-99.222;2022-12-16T02:58:17;19.30;42.50
12413;DHT22;13877;18.896;-99.222;2022-12-16T03:00:52;19.30;42.70
12413;DHT22;13877;18.896;-99.222;2022-12-16T03:03:57;19.30;42.80
12413;DHT22;13877;18.896;-99.222;2022-12-16T03:06:28;19.30;42.70
12413;DHT22;13877;18.896;-99.222;2022-12-16T03:08:59;19.30;42.70
12413;DHT22;13877;18.896;-99.222;2022-12-16T03:11:29;19.30;42.50
12413;DHT22;13877;18.896;-99.222;2022-12-16T03:14:00;19.20;42.50
12413;DHT22;13877;18.896;-99.222;2022-12-16T03:16:30;19.20;42.30
12413;DHT22;13877;18.896;-99.222;2022-12-16T03:19:03;19.20;42.10
12413;DHT22;13877;18.896;-99.222;2022-12-16T03:22:10;19.20;42.20
12413;DHT22;13877;18.896;-99.222;2022-12-16T03:24:40;19.20;42.20
12413;DHT22;13877;18.896;-99.222;2022-12-16T03:27:20;19.20;42.30
12413;DHT22;13877;18.896;-99.222;2022-12-16T03:29:52;19.10;42.20
12413;DHT22;13877;18.896;-99.222;2022-12-16T03:32:40;19.10;42.20
12413;DHT22;13877;18.896;-99.222;2022-12-16T03:35:35;19.10;42.20
12413;DHT22;13877;18.896;-99.222;2022-12-16T03:38:19;19.10;42.20
12413;DHT22;13877;18.896;-99.222;2022-12-16T03:40:49;19.00;42.10
12413;DHT22;13877;18.896;-99.222;2022-12-16T03:43:17;19.00;42.30
12413;DHT22;13877;18.896;-99.222;2022-12-16T03:45:53;19.00;41.90
12413;DHT22;13877;18.896;-99.222;2022-12-16T03:48:24;19.00;42.20
12413;DHT22;13877;18.896;-99.222;2022-12-16T03:50:51;19.00;42.10
12413;DHT22;13877;18.896;-99.222;2022-12-16T03:53:18;19.00;42.10
12413;DHT22;13877;18.896;-99.222;2022-12-16T03:55:49;19.00;42.10
12413;DHT22;13877;18.896;-99.222;2022-12-16T03:58:38;19.00;42.30
12413;DHT22;13877;18.896;-99.222;2022-12-16T04:01:33;18.90;42.30
12413;DHT22;13877;18.896;-99.222;2022-12-16T04:04:01;18.80;42.60
12413;DHT22;13877;18.896;-99.222;2022-12-16T04:06:28;18.90;42.30
12413;DHT22;13877;18.896;-99.222;2022-12-16T04:08:55;18.80;42.30
12413;DHT22;13877;18.896;-99.222;2022-12-16T04:11:22;18.90;42.30
12413;DHT22;13877;18.896;-99.222;2022-12-16T04:14:08;18.80;42.30
12413;DHT22;13877;18.896;-99.222;2022-12-16T04:16:53;18.80;42.50
12413;DHT22;13877;18.896;-99.222;2022-12-16T04:19:39;18.80;42.30
12413;DHT22;13877;18.896;-99.222;2022-12-16T04:22:38;18.70;43.00
12413;DHT22;13877;18.896;-99.222;2022-12-16T04:25:34;18.80;42.30
12413;DHT22;13877;18.896;-99.222;2022-12-16T04:28:02;18.80;42.30
12413;DHT22;13877;18.896;-99.222;2022-12-16T04:30:30;18.70;42.20
12413;DHT22;13877;18.896;-99.222;2022-12-16T04:33:07;18.70;42.30
12413;DHT22;13877;18.896;-99.222;2022-12-16T04:35:53;18.70;42.40
12413;DHT22;13877;18.896;-99.222;2022-12-16T04:38:39;18.70;42.10
12413;DHT22;13877;18.896;-99.222;2022-12-16T04:41:24;18.70;42.00
12413;DHT22;13877;18.896;-99.222;2022-12-16T04:44:10;18.70;42.10
12413;DHT22;13877;18.896;-99.222;2022-12-16T04:46:55;18.70;42.20
12413;DHT22;13877;18.896;-99.222;2022-12-16T04:49:41;18.70;42.20
12413;DHT22;13877;18.896;-99.222;2022-12-16T04:52:26;18.70;42.60
12413;DHT22;13877;18.896;-99.222;2022-12-16T04:55:11;18.60;42.30
12413;DHT22;13877;18.896;-99.222;2022-12-16T04:57:59;18.70;42.40
12413;DHT22;13877;18.896;-99.222;2022-12-16T05:00:45;18.70;42.30
12413;DHT22;13877;18.896;-99.222;2022-12-16T05:03:31;18.70;42.40
12413;DHT22;13877;18.896;-99.222;2022-12-16T05:06:17;18.60;42.50
12413;DHT22;13877;18.896;-99.222;2022-12-16T05:09:02;18.60;42.60
12413;DHT22;13877;18.896;-99.222;2022-12-16T05:11:48;18.60;42.60
12413;DHT22;13877;18.896;-99.222;2022-12-16T05:14:34;18.60;42.80
12413;DHT22;13877;18.896;-99.222;2022-12-16T05:17:20;18.60;42.70
12413;DHT22;13877;18.896;-99.222;2022-12-16T05:20:06;18.70;42.50
12413;DHT22;13877;18.896;-99.222;2022-12-16T05:22:55;18.80;42.30
12413;DHT22;13877;18.896;-99.222;2022-12-16T05:25:40;18.70;42.50
12413;DHT22;13877;18.896;-99.222;2022-12-16T05:28:26;18.60;42.50
12413;DHT22;13877;18.896;-99.222;2022-12-16T05:31:11;18.60;42.20
12413;DHT22;13877;18.896;-99.222;2022-12-16T05:33:56;18.60;42.00
12413;DHT22;13877;18.896;-99.222;2022-12-16T05:36:41;18.50;42.40
12413;DHT22;13877;18.896;-99.222;2022-12-16T05:39:26;18.50;42.30
12413;DHT22;13877;18.896;-99.222;2022-12-16T05:42:12;18.50;42.20
12413;DHT22;13877;18.896;-99.222;2022-12-16T05:44:57;18.40;42.50
12413;DHT22;13877;18.896;-99.222;2022-12-16T05:47:43;18.50;42.60
12413;DHT22;13877;18.896;-99.222;2022-12-16T05:50:31;18.50;42.70
12413;DHT22;13877;18.896;-99.222;2022-12-16T05:53:16;18.40;42.80
12413;DHT22;13877;18.896;-99.222;2022-12-16T05:56:01;18.40;43.20
12413;DHT22;13877;18.896;-99.222;2022-12-16T05:58:46;18.40;43.30
12413;DHT22;13877;18.896;-99.222;2022-12-16T06:01:32;18.30;43.30
12413;DHT22;13877;18.896;-99.222;2022-12-16T06:04:17;18.20;43.50
12413;DHT22;13877;18.896;-99.222;2022-12-16T06:07:02;18.20;43.40
12413;DHT22;13877;18.896;-99.222;2022-12-16T06:09:47;18.30;43.20
12413;DHT22;13877;18.896;-99.222;2022-12-16T06:12:32;18.30;43.10
12413;DHT22;13877;18.896;-99.222;2022-12-16T06:15:37;18.40;43.10
12413;DHT22;13877;18.896;-99.222;2022-12-16T06:18:23;18.30;42.60
12413;DHT22;13877;18.896;-99.222;2022-12-16T06:21:08;18.30;42.70
12413;DHT22;13877;18.896;-99.222;2022-12-16T06:23:54;18.10;42.70
12413;DHT22;13877;18.896;-99.222;2022-12-16T06:26:39;18.20;42.30
12413;DHT22;13877;18.896;-99.222;2022-12-16T06:29:25;18.20;42.20
12413;DHT22;13877;18.896;-99.222;2022-12-16T06:32:10;18.20;42.00
12413;DHT22;13877;18.896;-99.222;2022-12-16T06:34:55;18.20;42.10
12413;DHT22;13877;18.896;-99.222;2022-12-16T06:37:40;18.20;42.00
12413;DHT22;13877;18.896;-99.222;2022-12-16T06:40:25;18.20;42.00
12413;DHT22;13877;18.896;-99.222;2022-12-16T06:43:11;18.20;42.10
12413;DHT22;13877;18.896;-99.222;2022-12-16T06:45:56;18.10;42.30
12413;DHT22;13877;18.896;-99.222;2022-12-16T06:48:41;18.00;42.50
12413;DHT22;13877;18.896;-99.222;2022-12-16T06:51:27;17.90;43.10
12413;DHT22;13877;18.896;-99.222;2022-12-16T06:54:12;18.00;43.30
12413;DHT22;13877;18.896;-99.222;2022-12-16T06:56:58;17.90;43.70
12413;DHT22;13877;18.896;-99.222;2022-12-16T06:59:43;17.70;44.60
12413;DHT22;13877;18.896;-99.222;2022-12-16T07:02:28;17.30;45.00
12413;DHT22;13877;18.896;-99.222;2022-12-16T07:05:13;16.90;45.40
12413;DHT22;13877;18.896;-99.222;2022-12-16T07:07:58;16.50;46.90
12413;DHT22;13877;18.896;-99.222;2022-12-16T07:10:44;16.40;47.80
12413;DHT22;13877;18.896;-99.222;2022-12-16T07:13:29;16.50;47.50
12413;DHT22;13877;18.896;-99.222;2022-12-16T07:16:15;16.60;47.60
12413;DHT22;13877;18.896;-99.222;2022-12-16T07:18:59;16.60;47.80
12413;DHT22;13877;18.896;-99.222;2022-12-16T07:21:45;16.60;48.90
12413;DHT22;13877;18.896;-99.222;2022-12-16T07:24:30;16.60;48.60
12413;DHT22;13877;18.896;-99.222;2022-12-16T07:27:15;16.70;49.10
12413;DHT22;13877;18.896;-99.222;2022-12-16T07:30:00;16.70;50.00
12413;DHT22;13877;18.896;-99.222;2022-12-16T07:32:49;16.80;49.40
12413;DHT22;13877;18.896;-99.222;2022-12-16T07:35:34;16.50;49.80
12413;DHT22;13877;18.896;-99.222;2022-12-16T07:38:20;16.60;50.00
12413;DHT22;13877;18.896;-99.222;2022-12-16T07:41:05;16.70;49.90
12413;DHT22;13877;18.896;-99.222;2022-12-16T07:43:50;16.80;49.90
12413;DHT22;13877;18.896;-99.222;2022-12-16T07:46:36;16.70;49.70
12413;DHT22;13877;18.896;-99.222;2022-12-16T07:49:22;16.70;49.90
12413;DHT22;13877;18.896;-99.222;2022-12-16T07:52:08;16.70;50.00
12413;DHT22;13877;18.896;-99.222;2022-12-16T07:54:53;16.70;50.00
12413;DHT22;13877;18.896;-99.222;2022-12-16T07:57:38;16.70;50.10
12413;DHT22;13877;18.896;-99.222;2022-12-16T08:00:24;16.70;50.00
12413;DHT22;13877;18.896;-99.222;2022-12-16T08:03:11;16.80;49.80
12413;DHT22;13877;18.896;-99.222;2022-12-16T08:05:56;16.80;50.10
12413;DHT22;13877;18.896;-99.222;2022-12-16T08:08:41;16.70;50.10
12413;DHT22;13877;18.896;-99.222;2022-12-16T08:11:26;16.70;49.80
12413;DHT22;13877;18.896;-99.222;2022-12-16T08:14:11;16.70;49.60
12413;DHT22;13877;18.896;-99.222;2022-12-16T08:16:57;16.70;49.60
12413;DHT22;13877;18.896;-99.222;2022-12-16T08:19:42;16.90;49.00
12413;DHT22;13877;18.896;-99.222;2022-12-16T08:22:29;16.90;48.50
12413;DHT22;13877;18.896;-99.222;2022-12-16T08:25:14;16.90;47.90
12413;DHT22;13877;18.896;-99.222;2022-12-16T08:27:59;16.90;48.00
12413;DHT22;13877;18.896;-99.222;2022-12-16T08:30:49;16.90;47.70
12413;DHT22;13877;18.896;-99.222;2022-12-16T08:33:35;16.80;48.00
12413;DHT22;13877;18.896;-99.222;2022-12-16T08:36:20;16.80;47.70
12413;DHT22;13877;18.896;-99.222;2022-12-16T08:39:06;16.80;47.60
12413;DHT22;13877;18.896;-99.222;2022-12-16T08:41:51;16.70;47.60
12413;DHT22;13877;18.896;-99.222;2022-12-16T08:44:36;16.60;48.30
12413;DHT22;13877;18.896;-99.222;2022-12-16T08:47:22;16.60;47.70
12413;DHT22;13877;18.896;-99.222;2022-12-16T08:50:07;16.60;47.60
12413;DHT22;13877;18.896;-99.222;2022-12-16T08:52:52;16.60;47.80
12413;DHT22;13877;18.896;-99.222;2022-12-16T08:55:37;16.50;47.60
12413;DHT22;13877;18.896;-99.222;2022-12-16T08:58:22;16.60;47.50
12413;DHT22;13877;18.896;-99.222;2022-12-16T09:01:07;16.60;47.50
12413;DHT22;13877;18.896;-99.222;2022-12-16T09:03:53;16.50;47.70
12413;DHT22;13877;18.896;-99.222;2022-12-16T09:06:38;16.40;47.90
12413;DHT22;13877;18.896;-99.222;2022-12-16T09:09:23;16.50;48.00
12413;DHT22;13877;18.896;-99.222;2022-12-16T09:12:08;16.60;47.60
12413;DHT22;13877;18.896;-99.222;2022-12-16T09:14:53;16.50;47.10
12413;DHT22;13877;18.896;-99.222;2022-12-16T09:17:38;16.50;46.90
12413;DHT22;13877;18.896;-99.222;2022-12-16T09:20:23;16.50;46.90
12413;DHT22;13877;18.896;-99.222;2022-12-16T09:23:08;16.40;47.00
12413;DHT22;13877;18.896;-99.222;2022-12-16T09:25:56;16.40;47.10
12413;DHT22;13877;18.896;-99.222;2022-12-16T09:28:41;16.30;47.10
12413;DHT22;13877;18.896;-99.222;2022-12-16T09:31:26;16.30;46.90
12413;DHT22;13877;18.896;-99.222;2022-12-16T09:34:12;16.30;47.00
12413;DHT22;13877;18.896;-99.222;2022-12-16T09:36:57;16.20;46.60
12413;DHT22;13877;18.896;-99.222;2022-12-16T09:39:42;16.30;46.10
12413;DHT22;13877;18.896;-99.222;2022-12-16T09:51:20;16.80;43.30
12413;DHT22;13877;18.896;-99.222;2022-12-16T09:54:10;16.80;43.30
12413;DHT22;13877;18.896;-99.222;2022-12-16T09:56:58;16.80;43.60
12413;DHT22;13877;18.896;-99.222;2022-12-16T09:59:46;16.90;43.10
12413;DHT22;13877;18.896;-99.222;2022-12-16T10:02:35;16.90;43.20
12413;DHT22;13877;18.896;-99.222;2022-12-16T10:05:25;16.90;42.80
12413;DHT22;13877;18.896;-99.222;2022-12-16T10:08:24;16.80;42.90
12413;DHT22;13877;18.896;-99.222;2022-12-16T10:11:43;16.70;42.90
12413;DHT22;13877;18.896;-99.222;2022-12-16T10:14:32;16.70;43.00
12413;DHT22;13877;18.896;-99.222;2022-12-16T10:17:22;16.60;42.80
12413;DHT22;13877;18.896;-99.222;2022-12-16T10:20:21;16.40;43.10
12413;DHT22;13877;18.896;-99.222;2022-12-16T10:24:02;16.30;43.00
12413;DHT22;13877;18.896;-99.222;2022-12-16T10:29:29;16.20;43.70
12413;DHT22;13877;18.896;-99.222;2022-12-16T10:32:22;16.20;43.70
12413;DHT22;13877;18.896;-99.222;2022-12-16T10:35:26;16.10;43.80
12413;DHT22;13877;18.896;-99.222;2022-12-16T10:38:24;16.00;43.80
12413;DHT22;13877;18.896;-99.222;2022-12-16T10:41:13;16.10;43.70
12413;DHT22;13877;18.896;-99.222;2022-12-16T10:44:01;16.10;44.00
12413;DHT22;13877;18.896;-99.222;2022-12-16T10:46:47;16.10;43.60
12413;DHT22;13877;18.896;-99.222;2022-12-16T10:49:33;16.10;43.50
12413;DHT22;13877;18.896;-99.222;2022-12-16T10:52:19;16.10;43.50
12413;DHT22;13877;18.896;-99.222;2022-12-16T11:00:44;16.00;43.80
12413;DHT22;13877;18.896;-99.222;2022-12-16T11:03:33;15.90;44.30
12413;DHT22;13877;18.896;-99.222;2022-12-16T11:06:25;15.80;44.50
12413;DHT22;13877;18.896;-99.222;2022-12-16T11:09:20;15.70;45.10
12413;DHT22;13877;18.896;-99.222;2022-12-16T11:12:30;15.50;46.50
12413;DHT22;13877;18.896;-99.222;2022-12-16T11:15:26;15.40;47.30
12413;DHT22;13877;18.896;-99.222;2022-12-16T11:18:18;15.20;48.70
12413;DHT22;13877;18.896;-99.222;2022-12-16T11:21:20;14.90;49.10
12413;DHT22;13877;18.896;-99.222;2022-12-16T11:24:15;14.70;49.30
12413;DHT22;13877;18.896;-99.222;2022-12-16T11:27:03;14.50;49.30
12413;DHT22;13877;18.896;-99.222;2022-12-16T11:32:36;14.70;47.90
12413;DHT22;13877;18.896;-99.222;2022-12-16T11:35:26;14.80;46.90
12413;DHT22;13877;18.896;-99.222;2022-12-16T11:41:43;14.80;46.20
12413;DHT22;13877;18.896;-99.222;2022-12-16T11:44:34;14.80;45.70
12413;DHT22;13877;18.896;-99.222;2022-12-16T11:50:18;14.80;45.50
12413;DHT22;13877;18.896;-99.222;2022-12-16T11:53:12;14.80;45.50
12413;DHT22;13877;18.896;-99.222;2022-12-16T11:56:23;14.90;45.30
12413;DHT22;13877;18.896;-99.222;2022-12-16T11:59:21;15.00;44.90
12413;DHT22;13877;18.896;-99.222;2022-12-16T12:02:36;15.00;44.70
12413;DHT22;13877;18.896;-99.222;2022-12-16T12:05:29;15.20;44.50
12413;DHT22;13877;18.896;-99.222;2022-12-16T12:09:24;15.30;44.30
12413;DHT22;13877;18.896;-99.222;2022-12-16T12:12:20;15.50;44.00
12413;DHT22;13877;18.896;-99.222;2022-12-16T12:15:19;15.60;44.10
12413;DHT22;13877;18.896;-99.222;2022-12-16T12:24:27;15.40;44.60
12413;DHT22;13877;18.896;-99.222;2022-12-16T12:27:29;15.30;44.50
12413;DHT22;13877;18.896;-99.222;2022-12-16T12:30:19;15.30;44.90
12413;DHT22;13877;18.896;-99.222;2022-12-16T12:33:28;15.20;45.20
12413;DHT22;13877;18.896;-99.222;2022-12-16T12:39:56;15.10;45.50
12413;DHT22;13877;18.896;-99.222;2022-12-16T12:42:53;14.90;46.00
12413;DHT22;13877;18.896;-99.222;2022-12-16T12:55:00;14.20;49.30
12413;DHT22;13877;18.896;-99.222;2022-12-16T12:57:49;14.00;49.30
12413;DHT22;13877;18.896;-99.222;2022-12-16T13:00:45;13.80;49.70
12413;DHT22;13877;18.896;-99.222;2022-12-16T13:06:37;14.10;49.80
12413;DHT22;13877;18.896;-99.222;2022-12-16T13:09:32;14.20;49.40
12413;DHT22;13877;18.896;-99.222;2022-12-16T13:15:37;14.10;50.00
12413;DHT22;13877;18.896;-99.222;2022-12-16T13:18:28;14.20;49.80
12413;DHT22;13877;18.896;-99.222;2022-12-16T13:24:45;14.30;49.40
12413;DHT22;13877;18.896;-99.222;2022-12-16T13:27:49;14.50;49.00
12413;DHT22;13877;18.896;-99.222;2022-12-16T13:30:37;14.70;48.20
12413;DHT22;13877;18.896;-99.222;2022-12-16T13:33:28;15.00;48.40
12413;DHT22;13877;18.896;-99.222;2022-12-16T13:36:16;15.30;47.50
12413;DHT22;13877;18.896;-99.222;2022-12-16T13:39:23;15.60;47.20
12413;DHT22;13877;18.896;-99.222;2022-12-16T13:45:41;16.30;45.20
12413;DHT22;13877;18.896;-99.222;2022-12-16T13:48:36;16.60;45.10
12413;DHT22;13877;18.896;-99.222;2022-12-16T13:54:35;17.00;44.20
12413;DHT22;13877;18.896;-99.222;2022-12-16T13:57:41;17.10;43.70
12413;DHT22;13877;18.896;-99.222;2022-12-16T14:00:28;17.50;44.50
12413;DHT22;13877;18.896;-99.222;2022-12-16T14:03:41;17.70;43.90
12413;DHT22;13877;18.896;-99.222;2022-12-16T14:06:29;17.90;43.50
12413;DHT22;13877;18.896;-99.222;2022-12-16T14:09:37;18.00;42.60
12413;DHT22;13877;18.896;-99.222;2022-12-16T14:19:11;18.60;44.00
12413;DHT22;13877;18.896;-99.222;2022-12-16T14:25:14;19.10;46.00
12413;DHT22;13877;18.896;-99.222;2022-12-16T14:28:00;19.30;46.60
12413;DHT22;13877;18.896;-99.222;2022-12-16T14:31:02;19.40;46.70
12413;DHT22;13877;18.896;-99.222;2022-12-16T14:33:52;19.40;47.10
12413;DHT22;13877;18.896;-99.222;2022-12-16T14:36:39;19.70;46.50
12413;DHT22;13877;18.896;-99.222;2022-12-16T14:39:30;19.70;46.70
12413;DHT22;13877;18.896;-99.222;2022-12-16T14:42:20;19.80;47.60
12413;DHT22;13877;18.896;-99.222;2022-12-16T14:51:29;20.20;45.80
12413;DHT22;13877;18.896;-99.222;2022-12-16T14:54:24;20.30;46.10
12413;DHT22;13877;18.896;-99.222;2022-12-16T14:57:14;20.10;46.20
12413;DHT22;13877;18.896;-99.222;2022-12-16T15:00:10;20.20;47.10
12413;DHT22;13877;18.896;-99.222;2022-12-16T15:03:25;20.30;47.10
12413;DHT22;13877;18.896;-99.222;2022-12-16T15:06:11;20.20;47.40
12413;DHT22;13877;18.896;-99.222;2022-12-16T15:09:02;20.10;46.90
12413;DHT22;13877;18.896;-99.222;2022-12-16T15:11:51;20.70;46.50
12413;DHT22;13877;18.896;-99.222;2022-12-16T15:14:39;21.00;45.60
12413;DHT22;13877;18.896;-99.222;2022-12-16T15:17:41;21.10;45.00
12413;DHT22;13877;18.896;-99.222;2022-12-16T15:20:30;21.40;44.70
12413;DHT22;13877;18.896;-99.222;2022-12-16T15:23:27;21.10;45.00
12413;DHT22;13877;18.896;-99.222;2022-12-16T15:26:23;21.40;44.20
12413;DHT22;13877;18.896;-99.222;2022-12-16T15:29:34;21.70;43.00
12413;DHT22;13877;18.896;-99.222;2022-12-16T15:35:33;22.30;42.30
12413;DHT22;13877;18.896;-99.222;2022-12-16T15:38:39;22.60;42.40
12413;DHT22;13877;18.896;-99.222;2022-12-16T15:41:36;22.10;42.60
12413;DHT22;13877;18.896;-99.222;2022-12-16T15:44:24;22.70;42.10
12413;DHT22;13877;18.896;-99.222;2022-12-16T15:47:34;22.60;42.40
12413;DHT22;13877;18.896;-99.222;2022-12-16T15:50:25;23.20;41.90
12413;DHT22;13877;18.896;-99.222;2022-12-16T15:53:46;22.90;43.10
12413;DHT22;13877;18.896;-99.222;2022-12-16T15:56:43;22.30;42.10
12413;DHT22;13877;18.896;-99.222;2022-12-16T15:59:35;22.50;41.80
12413;DHT22;13877;18.896;-99.222;2022-12-16T16:02:23;22.10;42.00
12413;DHT22;13877;18.896;-99.222;2022-12-16T16:05:19;23.00;42.40
12413;DHT22;13877;18.896;-99.222;2022-12-16T16:08:04;22.80;40.80
12413;DHT22;13877;18.896;-99.222;2022-12-16T16:10:50;23.20;41.10
12413;DHT22;13877;18.896;-99.222;2022-12-16T16:13:35;23.30;40.70
12413;DHT22;13877;18.896;-99.222;2022-12-16T16:16:20;23.10;40.90
12413;DHT22;13877;18.896;-99.222;2022-12-16T16:19:11;24.00;39.60
12413;DHT22;13877;18.896;-99.222;2022-12-16T16:21:58;24.70;39.30
12413;DHT22;13877;18.896;-99.222;2022-12-16T16:24:43;24.60;39.10
12413;DHT22;13877;18.896;-99.222;2022-12-16T16:27:28;24.30;39.00
12413;DHT22;13877;18.896;-99.222;2022-12-16T16:30:14;23.90;39.10
12413;DHT22;13877;18.896;-99.222;2022-12-16T16:32:59;23.70;39.60
12413;DHT22;13877;18.896;-99.222;2022-12-16T16:35:44;23.70;38.30
12413;DHT22;13877;18.896;-99.222;2022-12-16T16:38:47;24.20;39.20
12413;DHT22;13877;18.896;-99.222;2022-12-16T16:41:33;24.40;37.70
12413;DHT22;13877;18.896;-99.222;2022-12-16T16:44:19;24.80;37.50
12413;DHT22;13877;18.896;-99.222;2022-12-16T16:47:09;24.80;38.00
12413;DHT22;13877;18.896;-99.222;2022-12-16T16:50:08;24.90;38.50
12413;DHT22;13877;18.896;-99.222;2022-12-16T16:52:57;24.90;37.80
12413;DHT22;13877;18.896;-99.222;2022-12-16T16:55:42;24.90;39.00
12413;DHT22;13877;18.896;-99.222;2022-12-16T16:58:30;25.50;39.50
12413;DHT22;13877;18.896;-99.222;2022-12-16T17:01:17;24.80;39.90
12413;DHT22;13877;18.896;-99.222;2022-12-16T17:04:04;25.50;38.70
12413;DHT22;13877;18.896;-99.222;2022-12-16T17:06:50;26.40;36.50
12413;DHT22;13877;18.896;-99.222;2022-12-16T17:09:35;26.10;37.30
12413;DHT22;13877;18.896;-99.222;2022-12-16T17:12:23;26.50;36.60
12413;DHT22;13877;18.896;-99.222;2022-12-16T17:15:13;25.80;37.40
12413;DHT22;13877;18.896;-99.222;2022-12-16T17:17:58;26.00;37.00
12413;DHT22;13877;18.896;-99.222;2022-12-16T17:20:43;25.30;38.00
12413;DHT22;13877;18.896;-99.222;2022-12-16T17:23:29;25.50;38.10
12413;DHT22;13877;18.896;-99.222;2022-12-16T17:26:13;25.40;38.80
12413;DHT22;13877;18.896;-99.222;2022-12-16T17:28:59;26.20;37.60
12413;DHT22;13877;18.896;-99.222;2022-12-16T17:31:44;26.00;37.50
12413;DHT22;13877;18.896;-99.222;2022-12-16T17:34:29;26.20;37.20
12413;DHT22;13877;18.896;-99.222;2022-12-16T17:37:15;26.10;38.10
12413;DHT22;13877;18.896;-99.222;2022-12-16T17:40:00;26.20;37.50
12413;DHT22;13877;18.896;-99.222;2022-12-16T17:42:47;26.00;37.70
12413;DHT22;13877;18.896;-99.222;2022-12-16T17:45:32;25.80;38.20
12413;DHT22;13877;18.896;-99.222;2022-12-16T17:48:20;26.30;37.80
12413;DHT22;13877;18.896;-99.222;2022-12-16T17:51:05;26.20;38.10
12413;DHT22;13877;18.896;-99.222;2022-12-16T17:53:51;26.60;36.90
12413;DHT22;13877;18.896;-99.222;2022-12-16T17:56:36;26.90;36.40
12413;DHT22;13877;18.896;-99.222;2022-12-16T17:59:21;27.40;36.00
12413;DHT22;13877;18.896;-99.222;2022-12-16T18:02:08;27.20;36.30
12413;DHT22;13877;18.896;-99.222;2022-12-16T18:04:56;27.10;36.70
12413;DHT22;13877;18.896;-99.222;2022-12-16T18:07:42;26.40;37.30
12413;DHT22;13877;18.896;-99.222;2022-12-16T18:10:27;26.90;38.50
12413;DHT22;13877;18.896;-99.222;2022-12-16T18:13:12;27.20;36.20
12413;DHT22;13877;18.896;-99.222;2022-12-16T18:15:57;27.10;36.70
12413;DHT22;13877;18.896;-99.222;2022-12-16T18:18:42;28.10;36.20
12413;DHT22;13877;18.896;-99.222;2022-12-16T18:21:32;28.20;35.80
12413;DHT22;13877;18.896;-99.222;2022-12-16T18:24:17;28.50;35.20
12413;DHT22;13877;18.896;-99.222;2022-12-16T18:27:03;28.20;35.80
12413;DHT22;13877;18.896;-99.222;2022-12-16T18:29:48;28.10;36.70
12413;DHT22;13877;18.896;-99.222;2022-12-16T18:32:33;28.00;35.70
12413;DHT22;13877;18.896;-99.222;2022-12-16T18:35:18;28.00;36.10
12413;DHT22;13877;18.896;-99.222;2022-12-16T18:38:04;28.20;36.20
12413;DHT22;13877;18.896;-99.222;2022-12-16T18:40:50;26.10;38.30
12413;DHT22;13877;18.896;-99.222;2022-12-16T18:43:35;26.40;38.70
12413;DHT22;13877;18.896;-99.222;2022-12-16T18:46:21;26.80;38.60